• Join FlightAware (Why Join?)
  • Login
  • US Flag 
06:45AM EDT


 

Airport Tracker/Info


-or-


 

Live Flight TrackerFlight Track Log ✈ UPS1143 ✈ 15-Oct-2013 ✈ KBUF - KSDF

Flight Track Log - Related Links

Times and Time Zones

All times are in EDT time to prevent confusion due to time zone crossing. See the UPS1143 flight status page for this flight to view local times or setup timezone preferences in your user account.

Time Position Orientation Groundspeed Altitude Reporting Facility
EDT Latitude Longitude Course Direction KTS MPH feet Rate Location/Type
11:23PM 42.9440 -78.7240 56° Northeast 100 115  Level FlightAware
11:23PM 42.9430 -78.7260 236° Southwest 115 132 3,300 Level FlightAware
11:23PM 42.9420 -78.7270 216° Southwest 130 150 4,080 Level FlightAware
11:23PM 42.9350 -78.7380 229° Southwest 157 181 1,100 4,620 Climbing FlightAware
11:24PM 42.9310 -78.7430 222° Southwest 151 174 1,700 3,960 Climbing FlightAware
11:24PM 42.9290 -78.7460 228° Southwest 150 173 1,900 3,480 Climbing FlightAware
11:24PM 42.9250 -78.7520 228° Southwest 145 167 2,400 3,720 Climbing FlightAware
11:24PM 42.9220 -78.7570 231° Southwest 145 167 2,900 3,000 Climbing FlightAware
11:24PM 42.9180 -78.7630 228° Southwest 155 178 3,200 1,980 Climbing FlightAware
11:24PM 42.9160 -78.7660 228° Southwest 161 185 3,300 1,980 Climbing FlightAware
11:24PM 42.9110 -78.7720 221° Southwest 172 198 3,600 1,860 Climbing FlightAware
11:24PM 42.9060 -78.7780 221° Southwest 184 212 3,800 1,500 Climbing FlightAware
11:24PM 42.9040 -78.7810 228° Southwest 192 221 3,900 1,500 Climbing FlightAware
11:25PM 42.8980 -78.7880 221° Southwest 207 238 4,100 1,500 Climbing FlightAware
11:25PM 42.8930 -78.7950 226° Southwest 224 258 4,300 1,500 Climbing FlightAware
11:25PM 42.8860 -78.8040 223° Southwest 239 275 4,500 2,580 Climbing FlightAware
11:25PM 42.8800 -78.8120 224° Southwest 243 280 5,000 3,960 Climbing FlightAware
11:25PM 42.8760 -78.8160 216° Southwest 245 282 5,300 3,960 Climbing FlightAware
11:25PM 42.8690 -78.8250 223° Southwest 247 284 5,800 3,720 Climbing FlightAware
11:25PM 42.8630 -78.8320 221° Southwest 249 287 6,300 3,960 Climbing FlightAware
11:25PM 42.8590 -78.8370 222° Southwest 250 288 6,600 3,960 Climbing FlightAware
11:25PM 42.8520 -78.8460 223° Southwest 252 290 7,100 4,080 Climbing FlightAware
11:26PM 42.8450 -78.8540 220° Southwest 254 292 7,700 4,080 Climbing FlightAware
11:26PM 42.8380 -78.8630 223° Southwest 255 293 8,200 4,080 Climbing FlightAware
11:26PM 42.8310 -78.8720 223° Southwest 257 296 8,800 3,960 Climbing FlightAware
11:26PM 42.8270 -78.8760 216° Southwest 258 297 9,000 3,480 Climbing FlightAware
11:26PM 42.8190 -78.8850 220° Southwest 260 299 9,500 3,720 Climbing FlightAware
11:26PM 42.8120 -78.8930 220° Southwest 264 304 10,000 3,000 Climbing FlightAware
11:26PM 42.8060 -78.9010 224° Southwest 268 308 10,300 2,460 Climbing FlightAware
11:26PM 42.8020 -78.9050 216° Southwest 273 314 10,500 1,980 Climbing FlightAware
11:27PM 42.7940 -78.9150 223° Southwest 285 328 10,700 1,500 Climbing FlightAware
11:27PM 42.7860 -78.9250 223° Southwest 297 342 10,900 1,500 Climbing FlightAware
11:27PM 42.7770 -78.9340 216° Southwest 309 356 11,100 1,500 Climbing FlightAware
11:27PM 42.7720 -78.9400 221° Southwest 317 365 11,200 1,500 Climbing FlightAware
11:27PM 42.7680 -78.9460 228° Southwest 323 372 11,300 1,680 Climbing FlightAware
11:27PM 42.7560 -78.9600 221° Southwest 338 389 11,600 1,500 Climbing FlightAware
11:27PM 42.7440 -78.9740 221° Southwest 352 405 11,800 1,260 Climbing FlightAware
11:27PM 42.7390 -78.9810 226° Southwest 357 411 11,900 1,800 Climbing FlightAware
11:27PM 42.7310 -78.9890 216° Southwest 360 414 12,100 2,820 Climbing FlightAware
11:28PM 42.7190 -79.0040 223° Southwest 360 414 12,700 3,600 Climbing FlightAware
11:28PM 42.7140 -79.0100 221° Southwest 360 414 13,000 3,960 Climbing FlightAware
11:28PM 42.7040 -79.0220 221° Southwest 361 415 13,500 3,360 Climbing FlightAware
11:28PM 42.6940 -79.0350 224° Southwest 362 417 13,900 3,420 Climbing FlightAware
11:28PM 42.6550 -79.0800 220° Southwest 364 419 15,700 3,000 Climbing FlightAware
11:29PM 42.6060 -79.1390 222° Southwest 381 438 17,300 2,400 Climbing FlightAware
11:30PM 42.5580 -79.1970 222° Southwest 392 451 18,700 2,280 Climbing FlightAware
11:30PM 42.5150 -79.2550 225° Southwest 400 460 20,000 2,220 Climbing FlightAware
11:31PM 42.4700 -79.3340 232° Southwest 409 471 21,400 2,100 Climbing FlightAware
11:31PM 42.4340 -79.4190 240° Southwest 418 481 22,700 2,040 Climbing FlightAware
11:32PM 42.4020 -79.5080 244° Southwest 425 489 24,000 1,620 Climbing FlightAware
11:33PM 42.3740 -79.5860 244° Southwest 428 493 24,600 1,020 Climbing FlightAware
11:33PM 42.3410 -79.6520 236° Southwest 426 490 25,100 840 Climbing FlightAware
11:34PM 42.2950 -79.7290 231° Southwest 432 497 25,600 1,200 Climbing FlightAware
11:34PM 42.2560 -79.7920 230° Southwest 436 502 26,500 1,680 Climbing FlightAware
11:35PM 42.2110 -79.8660 231° Southwest 439 505 27,500 1,740 Climbing FlightAware
11:35PM 42.1680 -79.9370 231° Southwest 438 504 28,600 2,400 Climbing FlightAware
11:36PM 42.1210 -80.0120 230° Southwest 423 487 30,300 2,520 Climbing FlightAware
11:37PM 42.0760 -80.0850 230° Southwest 415 478 31,600 1,020 Climbing FlightAware
11:37PM 42.0310 -80.1590 231° Southwest 407 468 31,600 -720 Level FlightAware
11:38PM 41.9950 -80.2170 230° Southwest 396 456 30,800 -1,980 Descending FlightAware
11:38PM 41.9510 -80.2880 230° Southwest 395 455 29,400 -2,160 Descending FlightAware
11:39PM 41.9170 -80.3450 231° Southwest 390 449 28,400 -1,260 Descending FlightAware
11:40PM 41.8740 -80.4130 230° Southwest 386 444 28,000 -360 Descending FlightAware
11:40PM 41.8320 -80.4810 230° Southwest 405 466 28,000  Level FlightAware
11:41PM 41.7850 -80.5560 230° Southwest 429 494 28,000  Level FlightAware
11:41PM 41.7420 -80.6260 231° Southwest 438 504 28,000  Level FlightAware
11:42PM 41.6980 -80.6960 230° Southwest 438 504 28,000  Level FlightAware
11:42PM 41.6500 -80.7720 230° Southwest 437 503 28,000  Level FlightAware
11:43PM 41.6060 -80.8430 230° Southwest 436 502 28,000  Level FlightAware
11:44PM 41.5590 -80.9160 229° Southwest 435 501 28,000  Level FlightAware
11:44PM 41.5140 -80.9880 230° Southwest 434 499 28,000  Level FlightAware
11:45PM 41.4670 -81.0630 230° Southwest 433 498 28,000  Level FlightAware
11:45PM 41.4250 -81.1290 230° Southwest 432 497 28,000  Level FlightAware
11:46PM 41.3790 -81.2000 229° Southwest 432 497 28,000  Level FlightAware
11:47PM 41.3320 -81.2740 230° Southwest 432 497 28,000  Level FlightAware
11:47PM 41.2900 -81.3400 230° Southwest 434 499 28,000  Level FlightAware
11:48PM 41.2410 -81.4160 229° Southwest 432 497 28,000  Level FlightAware
11:48PM 41.1950 -81.4880 230° Southwest 429 494 28,000  Level FlightAware
11:49PM 41.1540 -81.5520 230° Southwest 429 494 28,000  Level FlightAware
11:49PM 41.1070 -81.6250 230° Southwest 430 495 28,000  Level FlightAware
11:50PM 41.0660 -81.6880 229° Southwest 429 494 28,000  Level FlightAware
11:51PM 41.0170 -81.7640 230° Southwest 430 495 28,000  Level FlightAware
11:51PM 40.9680 -81.8390 229° Southwest 430 495 28,000  Level FlightAware
11:52PM 40.9270 -81.9030 230° Southwest 429 494 28,000  Level FlightAware
11:52PM 40.8820 -81.9710 229° Southwest 428 493 28,000  Level FlightAware
11:53PM 40.8350 -82.0420 229° Southwest 427 491 28,000  Level FlightAware
11:54PM 40.7940 -82.1060 230° Southwest 427 491 28,000  Level FlightAware
11:54PM 40.7450 -82.1790 228° Southwest 426 490 28,000  Level FlightAware
11:55PM 40.6980 -82.2510 229° Southwest 425 489 28,000  Level FlightAware
11:55PM 40.6520 -82.3200 229° Southwest 425 489 28,000  Level FlightAware
11:56PM 40.6110 -82.3830 229° Southwest 424 488 28,000  Level FlightAware
11:56PM 40.5650 -82.4520 229° Southwest 423 487 28,000  Level FlightAware
11:57PM 40.5180 -82.5230 229° Southwest 425 489 28,000  Level FlightAware
11:58PM 40.4800 -82.5810 229° Southwest 425 489 28,000  Level FlightAware
11:58PM 40.4310 -82.6540 229° Southwest 425 489 28,000  Level FlightAware
11:59PM 40.3840 -82.7250 229° Southwest 425 489 28,000  Level FlightAware
11:59PM 40.3380 -82.7930 228° Southwest 424 488 28,000  Level FlightAware
12:00AM 40.3000 -82.8480 228° Southwest 424 488 28,000  Level FlightAware
12:01AM 40.2530 -82.9180 229° Southwest 427 491 28,000  Level FlightAware
12:01AM 40.2060 -82.9880 229° Southwest 429 494 28,000  Level FlightAware
12:02AM 40.1550 -83.0640 229° Southwest 427 491 28,000  Level FlightAware
12:02AM 40.1070 -83.1350 229° Southwest 426 490 28,000  Level FlightAware
12:03AM 40.0650 -83.1970 228° Southwest 427 491 28,000  Level FlightAware
12:04AM 40.0160 -83.2680 228° Southwest 429 494 28,000  Level FlightAware
12:04AM 39.9770 -83.3250 228° Southwest 429 494 28,000  Level FlightAware
12:05AM 39.9290 -83.3970 229° Southwest 431 496 28,000  Level FlightAware
12:05AM 39.8790 -83.4700 228° Southwest 430 495 28,000  Level FlightAware
12:06AM 39.8310 -83.5390 228° Southwest 429 494 28,000  Level FlightAware
12:06AM 39.7880 -83.6010 228° Southwest 428 493 28,000  Level FlightAware
12:07AM 39.7410 -83.6690 228° Southwest 427 491 28,000  Level FlightAware
12:08AM 39.6940 -83.7380 228° Southwest 427 491 28,000  Level FlightAware
12:08AM 39.6490 -83.8040 228° Southwest 427 491 28,000  Level FlightAware
12:09AM 39.6040 -83.8680 228° Southwest 427 491 28,000  Level FlightAware
12:09AM 39.5440 -83.9540 228° Southwest 426 490 28,000  Level FlightAware
12:10AM 39.5010 -84.0150 228° Southwest 425 489 28,000  Level FlightAware
12:11AM 39.4480 -84.0920 228° Southwest 424 488 28,000  Level FlightAware
12:11AM 39.4040 -84.1540 227° Southwest 424 488 28,000  Level FlightAware
12:12AM 39.3630 -84.2140 229° Southwest 424 488 28,000  Level FlightAware
12:13AM 39.3230 -84.2710 228° Southwest 424 488 28,000  Level FlightAware
12:13AM 39.2830 -84.3290 228° Southwest 424 488 28,000 -1,800 Level FlightAware
12:14AM 39.2020 -84.4410 227° Southwest 430 495 25,900 -3,120 Descending FlightAware
12:14AM 39.1480 -84.5180 228° Southwest 424 488 24,200 -1,320 Descending FlightAware
12:15AM 39.0980 -84.5860 227° Southwest 424 488 24,100 -2,700 Descending FlightAware
12:16AM 39.0340 -84.6770 228° Southwest 404 465 20,300 -3,300 Descending FlightAware
12:17AM 38.9750 -84.7460 222° Southwest 408 470 19,100 -900 Descending FlightAware
12:17AM 38.9320 -84.7950 222° Southwest 408 470 19,100  Level FlightAware
12:18AM 38.8880 -84.8440 221° Southwest 408 470 19,100  Level FlightAware
12:19AM 38.8440 -84.8920 220° Southwest 408 470 19,100  Level FlightAware
12:19AM 38.8010 -84.9410 222° Southwest 408 470 19,100  Level FlightAware
12:20AM 38.7570 -84.9890 220° Southwest 408 470 19,100 -2,760 Level FlightAware
12:22AM 38.5340 -85.1700 212° Southwest 332 382 11,500 -2,880 Descending FlightAware
12:23AM 38.4890 -85.2120 216° Southwest 303 349 11,100 -660 Descending FlightAware
12:23AM 38.4410 -85.2580 217° Southwest 277 319 10,600 -960 Descending FlightAware
12:24AM 38.4140 -85.2830 216° Southwest 277 319 10,000 -1,380 Descending FlightAware
12:24AM 38.4000 -85.2960 216° Southwest 277 319 9,700 -420 Descending FlightAware
12:24AM 38.3750 -85.3200 217° Southwest 277 319 9,700 -1,200 Level FlightAware
12:25AM 38.3440 -85.3500 217° Southwest 265 305 8,600 -1,980 Descending FlightAware
12:25AM 38.3290 -85.3650 218° Southwest 263 303 8,300 -1,200 Descending FlightAware
12:25AM 38.3080 -85.3840 215° Southwest 262 302 7,900 -1,200 Descending FlightAware
12:26AM 38.2890 -85.4030 218° Southwest 257 296 7,500 -1,200 Descending FlightAware
12:26AM 38.2700 -85.4200 215° Southwest 254 292 7,100 -1,200 Descending FlightAware
12:26AM 38.2520 -85.4380 218° Southwest 252 290 6,700 -1,380 Descending FlightAware
12:27AM 38.2320 -85.4570 217° Southwest 248 285 6,200 -1,380 Descending FlightAware
12:27AM 38.2110 -85.4770 217° Southwest 246 283 5,700 -1,260 Descending FlightAware
12:28AM 38.1930 -85.4940 217° Southwest 246 283 5,300 -1,320 Descending FlightAware
12:28AM 38.1810 -85.5050 216° Southwest 245 282 5,000 -1,320 Descending FlightAware
12:28AM 38.1630 -85.5220 217° Southwest 245 282 4,600 -1,260 Descending FlightAware
12:28AM 38.1410 -85.5430 217° Southwest 240 276 4,100 -1,020 Descending FlightAware
12:29AM 38.1300 -85.5530 216° Southwest 232 267 4,000 -180 Descending FlightAware
12:29AM 38.1110 -85.5720 218° Southwest 213 245 4,000  Level FlightAware
12:29AM 38.1010 -85.5770 201° Southwest 213 245 4,000  Level FlightAware
12:29AM 38.0960 -85.5780 189° South 216 249 4,000 -660 Level FlightAware
12:30AM 38.0730 -85.5720 168° South 217 250 3,700 -900 Descending FlightAware
12:30AM 38.0540 -85.5660 166° South 214 246 3,400 -840 Descending FlightAware
12:30AM 38.0320 -85.5590 166° South 210 242 3,100 -660 Descending FlightAware
12:31AM 38.0270 -85.5580 171° South 202 232 3,100 -240 Level FlightAware
12:31AM 38.0100 -85.5680 205° Southwest 192 221 3,000 -240 Descending FlightAware
12:31AM 38.0070 -85.5740 238° Southwest 195 224 3,000  Level FlightAware
12:31AM 38.0060 -85.5830 262° West 199 229 3,000  Level FlightAware
12:31AM 38.0090 -85.6060 279° West 184 212 3,000  Level FlightAware
12:32AM 38.0120 -85.6230 283° West 178 205 3,000  Level FlightAware
12:32AM 38.0180 -85.6500 286° West 178 205 3,000 -360 Level FlightAware
12:32AM 38.0220 -85.6570 306° West 188 216 2,800 -900 Descending FlightAware
12:33AM 38.0350 -85.6700 322° Northwest 189 217 2,600 -480 Descending FlightAware
12:33AM 38.0500 -85.6830 326° Northwest 185 213 2,500 -180 Descending FlightAware
12:33AM 38.0600 -85.6880 339° North 191 220 2,500 -720 Level FlightAware
12:34AM 38.0800 -85.6950 345° North 192 221 2,100 -1,020 Descending FlightAware
12:34AM 38.0970 -85.7000 347° North 173 199 1,800 -900 Descending FlightAware
12:34AM 38.1110 -85.7050 344° North 152 175 1,500 -720 Descending FlightAware
12:35AM 38.1250 -85.7100 344° North 141 162 1,300 -660 Descending FlightAware
12:35AM 38.1400 -85.7150 345° North 141 162 1,000 -720 Descending FlightAware
12:35AM 38.1530 -85.7190 346° North 139 160 800 -780 Descending FlightAware
12:36AM 38.1660 -85.7240 343° North 138 159 500 -900 Descending FlightAware
12:36AM 38.1730 -85.7270 341° North 120 138 -1,920 Descending FlightAware